createdAt,value
2024-01-16T00:00:11.408Z,1.93
2024-01-16T00:02:47.343Z,2.83
2024-01-16T00:05:23.241Z,2.47
2024-01-16T00:08:01.066Z,2.10
2024-01-16T00:10:37.205Z,2.60
2024-01-16T00:13:13.442Z,2.13
2024-01-16T00:15:50.702Z,2.30
2024-01-16T00:18:26.713Z,2.00
2024-01-16T00:21:05.836Z,2.47
2024-01-16T00:23:41.799Z,2.00
2024-01-16T00:26:24.633Z,1.93
2024-01-16T00:29:00.735Z,1.80
2024-01-16T00:31:36.743Z,2.50
2024-01-16T00:34:12.827Z,2.27
2024-01-16T00:36:48.879Z,2.40
2024-01-16T00:39:25.098Z,3.00
2024-01-16T00:42:01.893Z,2.60
2024-01-16T00:44:37.862Z,2.65
2024-01-16T00:47:13.817Z,2.57
2024-01-16T00:49:49.725Z,2.17
2024-01-16T00:52:25.743Z,2.40
2024-01-16T00:55:01.708Z,3.23
2024-01-16T00:57:37.600Z,2.77
2024-01-16T01:00:13.807Z,3.00
2024-01-16T01:02:49.753Z,2.37
2024-01-16T01:05:30.197Z,3.20
2024-01-16T01:08:06.858Z,3.30
2024-01-16T01:10:42.865Z,2.53
2024-01-16T01:13:18.844Z,2.30
2024-01-16T01:15:55.033Z,2.93
2024-01-16T01:18:31.182Z,2.90
2024-01-16T01:21:07.185Z,3.60
2024-01-16T01:23:44.330Z,2.47
2024-01-16T01:26:20.485Z,2.65
2024-01-16T01:28:56.455Z,2.57
2024-01-16T01:31:32.340Z,3.30
2024-01-16T01:34:08.645Z,2.80
2024-01-16T01:36:44.770Z,2.67
2024-01-16T01:39:20.795Z,2.80
2024-01-16T01:41:56.732Z,2.50
2024-01-16T01:44:32.660Z,3.80
2024-01-16T01:47:09.839Z,3.00
2024-01-16T01:49:45.838Z,3.00
2024-01-16T01:52:21.721Z,2.80
2024-01-16T01:54:58.413Z,2.90
2024-01-16T01:57:35.392Z,2.65
2024-01-16T02:00:12.260Z,3.33
2024-01-16T02:02:51.272Z,2.63
2024-01-16T02:05:31.633Z,2.35
2024-01-16T02:08:07.831Z,2.67
2024-01-16T02:10:47.027Z,3.08
2024-01-16T02:13:24.551Z,3.60
2024-01-16T02:16:00.704Z,3.20
2024-01-16T02:18:36.874Z,2.50
2024-01-16T02:21:21.802Z,2.70
2024-01-16T02:23:57.801Z,3.37
2024-01-16T02:26:34.078Z,3.60
2024-01-16T02:29:10.440Z,3.73
2024-01-16T02:31:46.522Z,3.17
2024-01-16T02:34:22.568Z,3.10
2024-01-16T02:36:58.518Z,3.00
2024-01-16T02:39:34.422Z,3.03
2024-01-16T02:42:10.291Z,2.40
2024-01-16T02:44:46.243Z,3.53
2024-01-16T02:47:22.739Z,3.00
2024-01-16T02:49:59.177Z,2.60
2024-01-16T02:52:35.086Z,2.80
2024-01-16T02:55:11.040Z,2.63
2024-01-16T02:57:46.969Z,2.63
2024-01-16T03:00:23.826Z,2.70
2024-01-16T03:02:59.811Z,2.50
2024-01-16T03:05:35.851Z,2.60
2024-01-16T03:08:11.842Z,2.53
2024-01-16T03:10:47.951Z,2.53
2024-01-16T03:13:23.837Z,3.27
2024-01-16T03:15:59.717Z,2.30
2024-01-16T03:18:35.996Z,2.67
2024-01-16T03:21:14.517Z,2.43
2024-01-16T03:23:51.220Z,2.70
2024-01-16T03:26:27.504Z,3.23
2024-01-16T03:29:03.429Z,2.63
2024-01-16T03:31:39.668Z,3.05
2024-01-16T03:34:15.667Z,2.93
2024-01-16T03:36:51.821Z,2.70
2024-01-16T03:39:27.723Z,3.27
2024-01-16T03:42:03.885Z,4.55
2024-01-16T03:44:43.285Z,3.20
2024-01-16T03:47:20.347Z,2.87
2024-01-16T03:49:56.307Z,3.10
2024-01-16T03:52:32.221Z,2.90
2024-01-16T03:55:08.364Z,3.40
2024-01-16T03:57:44.223Z,2.60
2024-01-16T04:00:20.155Z,2.85
2024-01-16T04:02:56.098Z,2.93
2024-01-16T04:05:32.092Z,2.67
2024-01-16T04:08:08.369Z,2.78
2024-01-16T04:10:44.303Z,3.23
2024-01-16T04:13:20.192Z,3.10
2024-01-16T04:15:56.128Z,2.77
2024-01-16T04:18:38.878Z,3.22
2024-01-16T04:21:17.431Z,2.92
2024-01-16T04:23:54.684Z,2.60
2024-01-16T04:26:30.730Z,2.63
2024-01-16T04:29:06.746Z,3.00
2024-01-16T04:31:42.973Z,2.60
2024-01-16T04:34:19.062Z,2.63
2024-01-16T04:36:55.394Z,2.93
2024-01-16T04:39:31.254Z,3.23
2024-01-16T04:42:07.168Z,2.90
2024-01-16T04:44:43.102Z,3.10
2024-01-16T04:47:19.124Z,3.42
2024-01-16T04:49:55.040Z,3.13
2024-01-16T04:52:30.951Z,2.80
2024-01-16T04:55:07.342Z,3.00
2024-01-16T04:57:43.374Z,2.97
2024-01-16T05:00:19.399Z,2.50
2024-01-16T05:02:55.455Z,3.40
2024-01-16T05:05:31.470Z,3.30
2024-01-16T05:08:07.537Z,2.85
2024-01-16T05:10:44.890Z,2.60
2024-01-16T05:13:21.508Z,2.57
2024-01-16T05:15:57.531Z,2.38
2024-01-16T05:18:36.142Z,2.40
2024-01-16T05:21:12.197Z,3.05
2024-01-16T05:23:48.426Z,2.53
2024-01-16T05:26:24.603Z,2.85
2024-01-16T05:29:00.635Z,2.90
2024-01-16T05:31:42.591Z,3.37
2024-01-16T05:34:18.793Z,3.13
2024-01-16T05:36:54.855Z,2.55
2024-01-16T05:39:30.809Z,3.05
2024-01-16T05:42:08.231Z,2.70
2024-01-16T05:44:44.230Z,3.72
2024-01-16T05:47:20.203Z,2.92
2024-01-16T05:49:57.223Z,3.17
2024-01-16T05:52:33.172Z,2.80
2024-01-16T05:55:09.356Z,3.60
2024-01-16T05:57:45.253Z,3.17
2024-01-16T06:00:24.012Z,3.20
2024-01-16T06:02:59.889Z,2.70
2024-01-16T06:05:35.891Z,3.30
2024-01-16T06:08:11.884Z,3.15
2024-01-16T06:10:47.809Z,3.40
2024-01-16T06:13:23.794Z,3.53
2024-01-16T06:15:59.772Z,3.45
2024-01-16T06:18:37.064Z,3.58
2024-01-16T06:21:13.484Z,3.33
2024-01-16T06:23:49.489Z,2.88
2024-01-16T06:26:25.613Z,4.30
2024-01-16T06:29:01.576Z,3.15
2024-01-16T06:31:37.495Z,2.77
2024-01-16T06:34:13.702Z,2.65
2024-01-16T06:36:49.829Z,2.58
2024-01-16T06:39:25.730Z,2.42
2024-01-16T06:42:01.712Z,2.40
2024-01-16T06:44:37.724Z,2.50
2024-01-16T06:47:13.654Z,2.47
2024-01-16T06:49:49.634Z,2.60
2024-01-16T06:52:25.713Z,2.38
2024-01-16T06:55:01.661Z,2.80
2024-01-16T06:57:38.000Z,3.85
2024-01-16T07:00:15.674Z,2.80
2024-01-16T07:02:52.555Z,2.17
2024-01-16T07:05:28.667Z,2.92
2024-01-16T07:08:05.089Z,2.03
2024-01-16T07:10:41.322Z,3.10
2024-01-16T07:13:25.424Z,2.20
2024-01-16T07:16:01.661Z,2.58
2024-01-16T07:18:39.140Z,2.20
2024-01-16T07:21:22.168Z,2.00
2024-01-16T07:23:58.853Z,2.30
2024-01-16T07:26:35.468Z,2.50
2024-01-16T07:29:11.619Z,1.75
2024-01-16T07:31:47.782Z,1.80
2024-01-16T07:34:24.006Z,2.10
2024-01-16T07:36:59.951Z,1.90
2024-01-16T07:39:35.851Z,1.80
2024-01-16T07:42:12.012Z,2.10
2024-01-16T07:44:48.001Z,2.20
2024-01-16T07:47:23.963Z,2.20
2024-01-16T07:50:00.920Z,1.90
2024-01-16T07:52:36.808Z,1.70
2024-01-16T07:55:12.752Z,1.77
2024-01-16T07:57:48.594Z,1.85
2024-01-16T08:00:24.608Z,1.80
2024-01-16T08:03:00.674Z,1.95
2024-01-16T08:05:36.717Z,1.97
2024-01-16T08:08:12.991Z,1.97
2024-01-16T08:10:48.989Z,1.83
2024-01-16T08:13:24.896Z,1.70
2024-01-16T08:16:01.144Z,1.70
2024-01-16T08:18:37.246Z,1.85
2024-01-16T08:21:13.254Z,1.93
2024-01-16T08:23:49.247Z,1.83
2024-01-16T08:26:25.260Z,1.70
2024-01-16T08:29:01.193Z,1.73
2024-01-16T08:31:37.082Z,1.70
2024-01-16T08:34:13.140Z,1.87
2024-01-16T08:36:49.103Z,1.83
2024-01-16T08:39:29.010Z,1.90
2024-01-16T08:42:05.693Z,1.73
2024-01-16T08:44:41.900Z,1.73
2024-01-16T08:47:18.288Z,1.80
2024-01-16T08:49:54.446Z,1.90
2024-01-16T08:52:30.559Z,1.60
2024-01-16T08:55:06.568Z,1.70
2024-01-16T08:57:42.885Z,1.50
2024-01-16T09:00:19.149Z,1.63
2024-01-16T09:02:55.130Z,1.60
2024-01-16T09:05:31.128Z,1.60
2024-01-16T09:08:08.590Z,2.07
2024-01-16T09:10:46.068Z,1.83
2024-01-16T09:13:22.431Z,1.63
2024-01-16T09:15:58.360Z,1.30
2024-01-16T09:18:34.801Z,1.63
2024-01-16T09:21:10.826Z,1.43
2024-01-16T09:23:46.838Z,1.40
2024-01-16T09:26:22.815Z,1.63
2024-01-16T09:28:58.785Z,1.60
2024-01-16T09:31:34.694Z,1.50
2024-01-16T09:34:11.215Z,1.30
2024-01-16T09:36:47.621Z,1.80
2024-01-16T09:39:23.721Z,1.40
2024-01-16T09:42:04.268Z,1.53
2024-01-16T09:44:40.494Z,1.83
2024-01-16T09:47:17.672Z,1.60
2024-01-16T09:49:55.039Z,1.30
2024-01-16T09:52:31.170Z,1.57
2024-01-16T09:55:07.662Z,1.50
2024-01-16T09:57:47.094Z,1.70
2024-01-16T10:00:25.399Z,2.53
2024-01-16T10:03:02.639Z,2.40
2024-01-16T10:05:41.724Z,2.10
2024-01-16T10:08:20.725Z,1.87
2024-01-16T10:10:56.700Z,2.03
2024-01-16T10:13:34.517Z,1.80
2024-01-16T10:16:10.460Z,1.60
2024-01-16T10:18:46.628Z,1.73
2024-01-16T10:21:23.637Z,1.60
2024-01-16T10:24:13.369Z,1.97
2024-01-16T10:27:01.723Z,1.43
2024-01-16T10:29:46.782Z,2.27
2024-01-16T10:32:37.704Z,2.33
2024-01-16T10:35:15.785Z,1.70
2024-01-16T10:37:54.526Z,1.67
2024-01-16T10:40:32.392Z,1.90
2024-01-16T10:43:09.100Z,2.20
2024-01-16T10:45:45.043Z,1.53
2024-01-16T10:48:21.001Z,1.60
2024-01-16T10:50:57.003Z,2.07
2024-01-16T10:53:35.430Z,1.90
2024-01-16T10:56:14.817Z,2.57
2024-01-16T10:59:06.667Z,2.47
2024-01-16T11:01:47.451Z,2.37
2024-01-16T11:04:25.101Z,1.80
2024-01-16T11:07:01.805Z,2.50
2024-01-16T11:09:38.892Z,2.00
2024-01-16T11:12:17.757Z,2.07
2024-01-16T11:14:53.869Z,2.03
2024-01-16T11:17:32.633Z,1.70
2024-01-16T11:23:00.726Z,1.80
2024-01-16T11:25:36.863Z,2.40
2024-01-16T11:28:17.048Z,1.90
2024-01-16T11:30:52.972Z,2.30
2024-01-16T11:33:35.105Z,2.80
2024-01-16T11:36:56.617Z,2.13
2024-01-16T11:39:32.937Z,2.40
2024-01-16T11:42:11.717Z,2.03
2024-01-16T11:44:52.041Z,2.63
2024-01-16T11:47:28.171Z,2.30
2024-01-16T11:50:13.362Z,2.40
2024-01-16T11:52:49.311Z,2.30
2024-01-16T11:55:33.973Z,2.53
2024-01-16T11:58:46.210Z,2.30
2024-01-16T12:01:22.956Z,1.40
2024-01-16T12:04:10.454Z,1.80
2024-01-16T12:06:59.874Z,1.63
2024-01-16T12:09:36.041Z,1.70
2024-01-16T12:12:13.320Z,2.30
2024-01-16T12:14:55.921Z,2.20
2024-01-16T12:17:32.019Z,1.90
2024-01-16T12:20:19.130Z,1.40
2024-01-16T12:23:06.557Z,1.70
2024-01-16T12:26:01.413Z,1.47
2024-01-16T12:28:38.471Z,1.67
2024-01-16T12:31:19.612Z,1.60
2024-01-16T12:34:10.127Z,1.77
2024-01-16T12:36:46.869Z,2.10
2024-01-16T12:39:24.276Z,2.00
2024-01-16T12:42:00.818Z,1.50
2024-01-16T12:44:37.378Z,1.50
2024-01-16T12:47:17.013Z,2.03
2024-01-16T12:49:54.001Z,1.60
2024-01-16T12:52:31.034Z,1.87
2024-01-16T12:55:08.092Z,1.87
2024-01-16T12:57:43.990Z,1.60
2024-01-16T13:00:26.830Z,1.70
2024-01-16T13:03:03.297Z,1.57
2024-01-16T13:05:39.425Z,1.20
2024-01-16T13:08:20.415Z,1.10
2024-01-16T13:11:10.505Z,1.00
2024-01-16T13:13:48.838Z,1.00
2024-01-16T13:16:26.418Z,1.10
2024-01-16T13:19:06.022Z,1.10
2024-01-16T13:21:41.934Z,1.23
2024-01-16T13:24:24.373Z,1.40
2024-01-16T13:27:00.699Z,1.00
2024-01-16T13:29:40.828Z,1.07
2024-01-16T13:32:16.781Z,1.07
2024-01-16T13:34:52.706Z,1.20
2024-01-16T13:37:28.680Z,1.00
2024-01-16T13:40:17.187Z,1.10
2024-01-16T13:42:53.271Z,1.10
2024-01-16T13:45:29.678Z,1.30
2024-01-16T13:48:09.593Z,1.33
2024-01-16T13:50:45.838Z,1.37
2024-01-16T13:53:21.795Z,1.53
2024-01-16T13:55:59.441Z,1.20
2024-01-16T13:58:36.168Z,1.40
2024-01-16T14:01:12.360Z,1.00
2024-01-16T14:03:48.713Z,1.00
2024-01-16T14:06:47.236Z,1.33
2024-01-16T14:09:20.692Z,1.10
2024-01-16T14:11:56.566Z,1.40
2024-01-16T14:14:32.717Z,1.20
2024-01-16T14:17:08.702Z,1.40
2024-01-16T14:19:44.747Z,1.20
2024-01-16T14:22:20.637Z,1.60
2024-01-16T14:24:57.185Z,2.20
2024-01-16T14:27:33.086Z,1.90
2024-01-16T14:30:12.196Z,1.90
2024-01-16T14:32:48.208Z,1.63
2024-01-16T14:35:25.099Z,1.50
2024-01-16T14:38:01.270Z,2.30
2024-01-16T14:40:37.172Z,1.80
2024-01-16T14:43:13.105Z,1.97
2024-01-16T14:45:48.994Z,2.10
2024-01-16T14:48:24.995Z,2.00
2024-01-16T14:51:02.657Z,2.20
2024-01-16T14:53:38.790Z,2.00
2024-01-16T14:56:14.828Z,1.90
2024-01-16T14:58:50.772Z,1.50
2024-01-16T15:01:26.729Z,1.70
2024-01-16T15:04:03.118Z,1.77
2024-01-16T15:06:39.214Z,1.97
2024-01-16T15:09:15.526Z,1.97
2024-01-16T15:11:51.496Z,1.67
2024-01-16T15:14:27.564Z,1.80
2024-01-16T15:17:03.964Z,1.67
2024-01-16T15:19:39.959Z,1.70
2024-01-16T15:22:16.411Z,2.37
2024-01-16T15:24:52.415Z,2.40
2024-01-16T15:27:28.292Z,1.93
2024-01-16T15:30:05.973Z,2.23
2024-01-16T15:32:42.236Z,2.23
2024-01-16T15:35:18.288Z,2.00
2024-01-16T15:37:55.610Z,1.90
2024-01-16T15:40:32.442Z,2.20
2024-01-16T15:43:09.022Z,1.90
2024-01-16T15:45:45.197Z,2.57
2024-01-16T15:48:21.338Z,1.53
2024-01-16T15:50:57.927Z,1.50
2024-01-16T15:53:36.792Z,2.17
2024-01-16T15:56:13.364Z,1.73
2024-01-16T15:58:50.481Z,2.23
2024-01-16T16:01:26.439Z,2.40
2024-01-16T16:04:02.420Z,2.13
2024-01-16T16:06:39.827Z,2.00
2024-01-16T16:09:16.023Z,2.63
2024-01-16T16:11:52.804Z,2.33
2024-01-16T16:14:36.193Z,2.50
2024-01-16T16:17:12.701Z,3.13
2024-01-16T16:19:50.435Z,3.10
2024-01-16T16:22:26.407Z,2.67
2024-01-16T16:25:02.493Z,3.80
2024-01-16T16:27:38.441Z,3.27
2024-01-16T16:30:15.049Z,2.80
2024-01-16T16:32:51.579Z,3.50
2024-01-16T16:35:27.539Z,2.97
2024-01-16T16:38:03.617Z,3.67
2024-01-16T16:40:39.526Z,4.03
2024-01-16T16:43:16.088Z,2.80
2024-01-16T16:45:52.031Z,2.87
2024-01-16T16:48:28.172Z,3.30
2024-01-16T16:51:05.528Z,3.30
2024-01-16T16:53:44.288Z,3.60
2024-01-16T16:56:21.172Z,3.30
2024-01-16T16:58:57.110Z,4.00
2024-01-16T17:01:36.125Z,4.97
2024-01-16T17:04:12.180Z,5.33
2024-01-16T17:06:48.586Z,3.90
2024-01-16T17:09:24.585Z,4.67
2024-01-16T17:12:01.024Z,5.20
2024-01-16T17:14:37.441Z,10.70
2024-01-16T17:17:13.364Z,14.80
2024-01-16T17:19:49.276Z,83.70
2024-01-16T17:22:25.179Z,70.00
2024-01-16T17:25:01.988Z,33.50
2024-01-16T17:27:38.612Z,17.10
2024-01-16T17:30:15.063Z,12.50
2024-01-16T17:32:51.195Z,13.40
2024-01-16T17:35:27.226Z,10.90
2024-01-16T17:38:03.258Z,12.80
2024-01-16T17:40:39.377Z,8.17
2024-01-16T17:43:15.586Z,7.10
2024-01-16T17:45:52.023Z,8.20
2024-01-16T17:48:28.972Z,8.77
2024-01-16T17:51:04.997Z,7.80
2024-01-16T17:53:40.908Z,8.63
2024-01-16T17:56:17.739Z,7.57
2024-01-16T17:58:55.111Z,7.10
2024-01-16T18:01:31.345Z,6.50
2024-01-16T18:04:09.217Z,6.77
2024-01-16T18:06:45.352Z,5.93
2024-01-16T18:09:21.952Z,5.90
2024-01-16T18:11:59.507Z,6.37
2024-01-16T18:14:39.767Z,5.17
2024-01-16T18:17:16.224Z,5.70
2024-01-16T18:19:53.871Z,6.37
2024-01-16T18:22:29.760Z,6.57
2024-01-16T18:25:07.865Z,5.97
2024-01-16T18:27:44.743Z,5.80
2024-01-16T18:30:24.143Z,5.20
2024-01-16T18:33:00.178Z,5.03
2024-01-16T18:35:36.312Z,6.10
2024-01-16T18:38:14.939Z,6.60
2024-01-16T18:40:51.387Z,5.47
2024-01-16T18:43:28.965Z,5.93
2024-01-16T18:46:05.104Z,6.00
2024-01-16T18:48:43.990Z,6.15
2024-01-16T18:51:20.086Z,7.10
2024-01-16T18:53:56.334Z,7.90
2024-01-16T18:56:32.547Z,7.22
2024-01-16T18:59:08.499Z,8.38
2024-01-16T19:01:46.289Z,7.90
2024-01-16T19:04:25.160Z,8.40
2024-01-16T19:07:02.598Z,8.82
2024-01-16T19:09:44.998Z,8.90
2024-01-16T19:12:20.971Z,8.60
2024-01-16T19:14:58.084Z,7.15
2024-01-16T19:17:35.119Z,9.15
2024-01-16T19:20:12.015Z,8.82
2024-01-16T19:22:48.513Z,13.13
2024-01-16T19:25:26.688Z,10.52
2024-01-16T19:28:03.474Z,8.43
2024-01-16T19:30:39.880Z,6.30
2024-01-16T19:33:16.491Z,6.57
2024-01-16T19:35:53.657Z,7.90
2024-01-16T19:38:29.746Z,7.28
2024-01-16T19:41:06.148Z,7.65
2024-01-16T19:43:42.115Z,7.93
2024-01-16T19:46:18.210Z,7.68
2024-01-16T19:48:54.274Z,8.02
2024-01-16T19:51:31.087Z,6.63
2024-01-16T19:54:09.026Z,6.88
2024-01-16T19:56:45.989Z,8.70
2024-01-16T19:59:22.088Z,7.25
2024-01-16T20:01:58.067Z,7.22
2024-01-16T20:04:34.710Z,7.95
2024-01-16T20:07:10.624Z,7.60
2024-01-16T20:09:47.521Z,6.90
2024-01-16T20:12:35.862Z,7.63
2024-01-16T20:15:22.348Z,8.77
2024-01-16T20:18:02.015Z,7.60
2024-01-16T20:20:39.648Z,7.90
2024-01-16T20:23:15.689Z,8.88
2024-01-16T20:25:51.834Z,7.13
2024-01-16T20:28:27.721Z,6.47
2024-01-16T20:31:03.657Z,6.95
2024-01-16T20:33:50.763Z,7.13
2024-01-16T20:36:26.886Z,8.88
2024-01-16T20:39:02.920Z,7.50
2024-01-16T20:41:39.049Z,7.50
2024-01-16T20:44:20.577Z,6.82
2024-01-16T20:46:56.518Z,7.38
2024-01-16T20:49:32.577Z,7.18
2024-01-16T20:52:08.507Z,6.22
2024-01-16T20:54:44.409Z,8.93
2024-01-16T20:57:20.335Z,7.50
2024-01-16T20:59:56.817Z,7.63
2024-01-16T21:02:33.256Z,7.70
2024-01-16T21:05:09.771Z,6.70
2024-01-16T21:07:46.050Z,8.70
2024-01-16T21:10:22.055Z,9.10
2024-01-16T21:12:58.171Z,8.30
2024-01-16T21:15:34.129Z,8.55
2024-01-16T21:18:10.266Z,8.10
2024-01-16T21:20:46.276Z,8.30
2024-01-16T21:23:22.194Z,8.02
2024-01-16T21:25:58.185Z,9.10
2024-01-16T21:28:34.949Z,8.57
2024-01-16T21:31:10.928Z,8.25
2024-01-16T21:33:47.013Z,9.30
2024-01-16T21:36:22.977Z,8.27
2024-01-16T21:38:59.129Z,9.68
2024-01-16T21:41:36.801Z,8.60
2024-01-16T21:44:13.032Z,10.75
2024-01-16T21:46:48.912Z,9.45
2024-01-16T21:49:25.436Z,8.70
2024-01-16T21:52:02.270Z,8.95
2024-01-16T21:54:38.213Z,10.85
2024-01-16T21:57:14.332Z,10.20
2024-01-16T21:59:50.999Z,11.00
2024-01-16T22:02:28.048Z,11.00
2024-01-16T22:05:04.773Z,9.90
2024-01-16T22:07:42.376Z,11.32
2024-01-16T22:10:18.315Z,10.20
2024-01-16T22:12:54.209Z,9.73
2024-01-16T22:15:30.188Z,10.02
2024-01-16T22:18:06.682Z,9.80
2024-01-16T22:20:42.833Z,9.40
2024-01-16T22:23:18.916Z,10.25
2024-01-16T22:25:55.729Z,10.63
2024-01-16T22:28:31.911Z,8.93
2024-01-16T22:31:08.829Z,9.60
2024-01-16T22:33:45.012Z,9.82
2024-01-16T22:36:20.990Z,9.35
2024-01-16T22:38:56.973Z,10.15
2024-01-16T22:41:35.106Z,8.70
2024-01-16T22:44:11.840Z,8.55
2024-01-16T22:46:47.869Z,9.35
2024-01-16T22:49:24.138Z,8.27
2024-01-16T22:52:00.061Z,9.30
2024-01-16T22:54:36.265Z,8.48
2024-01-16T22:57:12.220Z,8.95
2024-01-16T22:59:49.824Z,8.35
2024-01-16T23:02:26.079Z,7.13
2024-01-16T23:05:03.278Z,9.02
2024-01-16T23:07:39.136Z,8.55
2024-01-16T23:10:15.832Z,8.18
2024-01-16T23:12:52.065Z,8.75
2024-01-16T23:15:27.936Z,8.40
2024-01-16T23:18:07.108Z,9.50
2024-01-16T23:20:43.131Z,9.30
2024-01-16T23:23:19.088Z,9.43
2024-01-16T23:25:54.981Z,9.15
2024-01-16T23:28:30.887Z,9.10
2024-01-16T23:31:07.660Z,9.40
2024-01-16T23:33:43.868Z,9.35
2024-01-16T23:36:20.546Z,8.77
2024-01-16T23:38:56.484Z,9.30
2024-01-16T23:41:33.368Z,9.60
2024-01-16T23:44:09.621Z,9.20
2024-01-16T23:46:45.572Z,8.45
2024-01-16T23:49:22.092Z,10.15
2024-01-16T23:51:58.107Z,9.23
2024-01-16T23:54:33.998Z,9.20
2024-01-16T23:57:10.085Z,9.70
2024-01-16T23:59:46.666Z,9.50
